sensor_id;sensor_type;location;lat;lon;timestamp;pressure;altitude;pressure_sealevel;temperature;humidity
34925;BME280;21130;51.728;8.748;2023-04-06T00:01:22;100679.97;;;2.44;100.00
34925;BME280;21130;51.728;8.748;2023-04-06T00:03:48;100672.59;;;2.45;99.30
34925;BME280;21130;51.728;8.748;2023-04-06T00:06:15;100666.28;;;2.44;99.43
34925;BME280;21130;51.728;8.748;2023-04-06T00:08:42;100674.38;;;2.37;100.00
34925;BME280;21130;51.728;8.748;2023-04-06T00:11:09;100669.75;;;2.38;99.73
34925;BME280;21130;51.728;8.748;2023-04-06T00:13:37;100672.69;;;2.36;100.00
34925;BME280;21130;51.728;8.748;2023-04-06T00:16:04;100673.09;;;2.33;100.00
34925;BME280;21130;51.728;8.748;2023-04-06T00:18:32;100662.97;;;2.34;100.00
34925;BME280;21130;51.728;8.748;2023-04-06T00:20:59;100664.19;;;2.31;100.00
34925;BME280;21130;51.728;8.748;2023-04-06T00:23:25;100660.97;;;2.28;100.00
34925;BME280;21130;51.728;8.748;2023-04-06T00:25:52;100653.41;;;2.30;100.00
34925;BME280;21130;51.728;8.748;2023-04-06T00:28:18;100659.81;;;2.22;100.00
34925;BME280;21130;51.728;8.748;2023-04-06T00:30:50;100652.56;;;2.14;100.00
34925;BME280;21130;51.728;8.748;2023-04-06T00:33:17;100649.53;;;2.09;100.00
34925;BME280;21130;51.728;8.748;2023-04-06T00:35:46;100654.53;;;2.06;100.00
34925;BME280;21130;51.728;8.748;2023-04-06T00:38:13;100659.63;;;2.09;100.00
34925;BME280;21130;51.728;8.748;2023-04-06T00:40:40;100652.44;;;2.08;100.00
34925;BME280;21130;51.728;8.748;2023-04-06T00:43:07;100643.19;;;2.09;100.00
34925;BME280;21130;51.728;8.748;2023-04-06T00:45:34;100644.50;;;2.13;100.00
34925;BME280;21130;51.728;8.748;2023-04-06T00:48:01;100643.59;;;2.06;100.00
34925;BME280;21130;51.728;8.748;2023-04-06T00:50:28;100633.09;;;2.09;100.00
34925;BME280;21130;51.728;8.748;2023-04-06T00:52:56;100642.81;;;2.12;100.00
34925;BME280;21130;51.728;8.748;2023-04-06T00:55:23;100629.69;;;2.07;100.00
34925;BME280;21130;51.728;8.748;2023-04-06T00:57:49;100631.41;;;2.08;100.00
34925;BME280;21130;51.728;8.748;2023-04-06T01:00:16;100636.94;;;2.00;100.00
34925;BME280;21130;51.728;8.748;2023-04-06T01:02:43;100626.19;;;1.99;100.00
34925;BME280;21130;51.728;8.748;2023-04-06T01:05:11;100624.13;;;2.01;100.00
34925;BME280;21130;51.728;8.748;2023-04-06T01:07:38;100617.97;;;1.99;100.00
34925;BME280;21130;51.728;8.748;2023-04-06T01:10:06;100627.47;;;1.88;100.00
34925;BME280;21130;51.728;8.748;2023-04-06T01:12:33;100618.50;;;1.79;100.00
34925;BME280;21130;51.728;8.748;2023-04-06T01:15:00;100620.56;;;1.77;100.00
34925;BME280;21130;51.728;8.748;2023-04-06T01:17:26;100617.25;;;1.67;100.00
34925;BME280;21130;51.728;8.748;2023-04-06T01:19:53;100604.22;;;1.69;100.00
34925;BME280;21130;51.728;8.748;2023-04-06T01:22:24;100613.72;;;1.58;100.00
34925;BME280;21130;51.728;8.748;2023-04-06T01:24:51;100600.69;;;1.60;100.00
34925;BME280;21130;51.728;8.748;2023-04-06T01:27:17;100608.06;;;1.60;100.00
34925;BME280;21130;51.728;8.748;2023-04-06T01:29:44;100609.28;;;1.57;100.00
34925;BME280;21130;51.728;8.748;2023-04-06T01:32:10;100606.78;;;1.47;100.00
34925;BME280;21130;51.728;8.748;2023-04-06T01:34:37;100598.97;;;1.44;100.00
34925;BME280;21130;51.728;8.748;2023-04-06T01:37:03;100604.81;;;1.41;100.00
34925;BME280;21130;51.728;8.748;2023-04-06T01:39:31;100601.16;;;1.49;100.00
34925;BME280;21130;51.728;8.748;2023-04-06T01:41:57;100597.97;;;1.37;100.00
34925;BME280;21130;51.728;8.748;2023-04-06T01:44:24;100590.91;;;1.28;100.00
34925;BME280;21130;51.728;8.748;2023-04-06T01:46:50;100582.94;;;1.18;100.00
34925;BME280;21130;51.728;8.748;2023-04-06T01:49:17;100583.78;;;1.19;100.00
34925;BME280;21130;51.728;8.748;2023-04-06T01:51:43;100589.53;;;1.01;100.00
34925;BME280;21130;51.728;8.748;2023-04-06T01:54:10;100574.94;;;0.85;100.00
34925;BME280;21130;51.728;8.748;2023-04-06T01:56:38;100585.72;;;0.79;100.00
34925;BME280;21130;51.728;8.748;2023-04-06T01:59:05;100580.53;;;0.61;100.00
34925;BME280;21130;51.728;8.748;2023-04-06T02:01:31;100582.47;;;0.44;100.00
34925;BME280;21130;51.728;8.748;2023-04-06T02:03:58;100585.63;;;0.33;100.00
34925;BME280;21130;51.728;8.748;2023-04-06T02:06:24;100589.72;;;0.29;100.00
34925;BME280;21130;51.728;8.748;2023-04-06T02:08:52;100581.41;;;0.14;100.00
34925;BME280;21130;51.728;8.748;2023-04-06T02:11:18;100582.78;;;0.02;100.00
34925;BME280;21130;51.728;8.748;2023-04-06T02:13:46;100579.91;;;0.03;100.00
34925;BME280;21130;51.728;8.748;2023-04-06T02:16:12;100578.91;;;-0.04;100.00
34925;BME280;21130;51.728;8.748;2023-04-06T02:18:40;100580.25;;;0.00;100.00
34925;BME280;21130;51.728;8.748;2023-04-06T02:21:06;100579.91;;;0.03;100.00
34925;BME280;21130;51.728;8.748;2023-04-06T02:23:32;100572.75;;;-0.06;100.00
34925;BME280;21130;51.728;8.748;2023-04-06T02:25:59;100577.53;;;-0.08;100.00
34925;BME280;21130;51.728;8.748;2023-04-06T02:28:25;100578.53;;;-0.01;100.00
34925;BME280;21130;51.728;8.748;2023-04-06T02:30:54;100581.81;;;-0.14;100.00
34925;BME280;21130;51.728;8.748;2023-04-06T02:33:20;100579.94;;;-0.22;100.00
34925;BME280;21130;51.728;8.748;2023-04-06T02:35:47;100573.13;;;-0.17;100.00
34925;BME280;21130;51.728;8.748;2023-04-06T02:38:13;100577.06;;;-0.28;100.00
34925;BME280;21130;51.728;8.748;2023-04-06T02:40:42;100581.84;;;-0.38;100.00
34925;BME280;21130;51.728;8.748;2023-04-06T02:43:09;100577.25;;;-0.46;100.00
34925;BME280;21130;51.728;8.748;2023-04-06T02:45:35;100571.97;;;-0.56;100.00
34925;BME280;21130;51.728;8.748;2023-04-06T02:48:04;100580.50;;;-0.59;100.00
34925;BME280;21130;51.728;8.748;2023-04-06T02:50:31;100575.88;;;-0.67;100.00
34925;BME280;21130;51.728;8.748;2023-04-06T02:52:57;100571.97;;;-0.72;100.00
34925;BME280;21130;51.728;8.748;2023-04-06T02:55:24;100577.25;;;-0.71;100.00
34925;BME280;21130;51.728;8.748;2023-04-06T02:57:50;100581.00;;;-0.72;100.00
34925;BME280;21130;51.728;8.748;2023-04-06T03:00:17;100582.34;;;-0.76;100.00
34925;BME280;21130;51.728;8.748;2023-04-06T03:02:44;100575.56;;;-0.80;100.00
34925;BME280;21130;51.728;8.748;2023-04-06T03:05:12;100578.59;;;-0.83;100.00
34925;BME280;21130;51.728;8.748;2023-04-06T03:07:39;100571.63;;;-0.69;100.00
34925;BME280;21130;51.728;8.748;2023-04-06T03:10:06;100572.47;;;-0.36;100.00
34925;BME280;21130;51.728;8.748;2023-04-06T03:12:33;100564.63;;;-0.23;100.00
34925;BME280;21130;51.728;8.748;2023-04-06T03:14:59;100567.69;;;-0.17;100.00
34925;BME280;21130;51.728;8.748;2023-04-06T03:17:25;100574.84;;;-0.33;100.00
34925;BME280;21130;51.728;8.748;2023-04-06T03:19:52;100566.19;;;-0.45;100.00
34925;BME280;21130;51.728;8.748;2023-04-06T03:22:20;100568.38;;;-0.56;100.00
34925;BME280;21130;51.728;8.748;2023-04-06T03:24:47;100572.47;;;-0.69;100.00
34925;BME280;21130;51.728;8.748;2023-04-06T03:27:13;100569.91;;;-0.78;100.00
34925;BME280;21130;51.728;8.748;2023-04-06T03:29:40;100570.41;;;-0.83;100.00
34925;BME280;21130;51.728;8.748;2023-04-06T03:32:06;100574.00;;;-0.91;100.00
34925;BME280;21130;51.728;8.748;2023-04-06T03:34:33;100574.19;;;-0.92;100.00
34925;BME280;21130;51.728;8.748;2023-04-06T03:36:59;100573.50;;;-1.02;100.00
34925;BME280;21130;51.728;8.748;2023-04-06T03:39:27;100579.28;;;-0.89;100.00
34925;BME280;21130;51.728;8.748;2023-04-06T03:41:53;100577.91;;;-1.01;100.00
34925;BME280;21130;51.728;8.748;2023-04-06T03:44:20;100575.19;;;-1.01;100.00
34925;BME280;21130;51.728;8.748;2023-04-06T03:46:47;100574.16;;;-1.00;100.00
34925;BME280;21130;51.728;8.748;2023-04-06T03:49:13;100575.31;;;-1.11;100.00
34925;BME280;21130;51.728;8.748;2023-04-06T03:51:40;100576.84;;;-1.17;100.00
34925;BME280;21130;51.728;8.748;2023-04-06T03:54:06;100577.69;;;-1.24;100.00
34925;BME280;21130;51.728;8.748;2023-04-06T03:56:34;100578.69;;;-1.25;100.00
34925;BME280;21130;51.728;8.748;2023-04-06T03:59:00;100579.88;;;-1.28;100.00
34925;BME280;21130;51.728;8.748;2023-04-06T04:01:27;100579.53;;;-1.33;100.00
34925;BME280;21130;51.728;8.748;2023-04-06T04:03:54;100582.25;;;-1.33;100.00
34925;BME280;21130;51.728;8.748;2023-04-06T04:06:20;100578.53;;;-1.32;100.00
34925;BME280;21130;51.728;8.748;2023-04-06T04:08:47;100581.06;;;-1.31;100.00
34925;BME280;21130;51.728;8.748;2023-04-06T04:11:13;100579.03;;;-1.28;100.00
34925;BME280;21130;51.728;8.748;2023-04-06T04:13:42;100574.78;;;-1.31;100.00
34925;BME280;21130;51.728;8.748;2023-04-06T04:16:08;100575.47;;;-1.29;100.00
34925;BME280;21130;51.728;8.748;2023-04-06T04:18:35;100579.22;;;-1.30;100.00
34925;BME280;21130;51.728;8.748;2023-04-06T04:21:01;100580.22;;;-1.31;100.00
34925;BME280;21130;51.728;8.748;2023-04-06T04:23:28;100577.69;;;-1.33;100.00
34925;BME280;21130;51.728;8.748;2023-04-06T04:25:55;100580.75;;;-1.27;100.00
34925;BME280;21130;51.728;8.748;2023-04-06T04:28:22;100574.13;;;-1.17;100.00
34925;BME280;21130;51.728;8.748;2023-04-06T04:30:50;100580.44;;;-1.08;100.00
34925;BME280;21130;51.728;8.748;2023-04-06T04:33:16;100580.47;;;-0.92;100.00
34925;BME280;21130;51.728;8.748;2023-04-06T04:35:43;100574.53;;;-0.95;100.00
34925;BME280;21130;51.728;8.748;2023-04-06T04:38:09;100571.09;;;-0.81;100.00
34925;BME280;21130;51.728;8.748;2023-04-06T04:40:36;100571.09;;;-0.89;100.00
34925;BME280;21130;51.728;8.748;2023-04-06T04:43:02;100569.94;;;-0.70;100.00
34925;BME280;21130;51.728;8.748;2023-04-06T04:45:29;100574.88;;;-0.74;100.00
34925;BME280;21130;51.728;8.748;2023-04-06T04:47:56;100570.78;;;-0.61;100.00
34925;BME280;21130;51.728;8.748;2023-04-06T04:50:23;100571.47;;;-0.59;100.00
34925;BME280;21130;51.728;8.748;2023-04-06T04:52:50;100568.41;;;-0.64;100.00
34925;BME280;21130;51.728;8.748;2023-04-06T04:55:16;100565.31;;;-0.61;100.00
34925;BME280;21130;51.728;8.748;2023-04-06T04:57:49;100574.00;;;-0.66;100.00
34925;BME280;21130;51.728;8.748;2023-04-06T05:00:16;100568.56;;;-0.66;100.00
34925;BME280;21130;51.728;8.748;2023-04-06T05:02:42;100575.56;;;-0.72;100.00
34925;BME280;21130;51.728;8.748;2023-04-06T05:05:10;100572.47;;;-0.77;100.00
34925;BME280;21130;51.728;8.748;2023-04-06T05:07:37;100575.72;;;-0.73;100.00
34925;BME280;21130;51.728;8.748;2023-04-06T05:10:04;100568.03;;;-0.78;100.00
34925;BME280;21130;51.728;8.748;2023-04-06T05:12:31;100566.34;;;-0.54;100.00
34925;BME280;21130;51.728;8.748;2023-04-06T05:14:57;100569.94;;;-0.62;100.00
34925;BME280;21130;51.728;8.748;2023-04-06T05:17:24;100573.50;;;-0.53;100.00
34925;BME280;21130;51.728;8.748;2023-04-06T05:19:51;100571.09;;;-0.48;100.00
34925;BME280;21130;51.728;8.748;2023-04-06T05:22:19;100568.88;;;-0.53;100.00
34925;BME280;21130;51.728;8.748;2023-04-06T05:24:45;100561.88;;;-0.31;100.00
34925;BME280;21130;51.728;8.748;2023-04-06T05:27:12;100570.06;;;-0.23;100.00
34925;BME280;21130;51.728;8.748;2023-04-06T05:29:38;100571.75;;;-0.13;100.00
34925;BME280;21130;51.728;8.748;2023-04-06T05:32:06;100562.22;;;-0.17;100.00
34925;BME280;21130;51.728;8.748;2023-04-06T05:34:32;100570.34;;;-0.01;100.00
34925;BME280;21130;51.728;8.748;2023-04-06T05:36:59;100569.00;;;0.03;100.00
34925;BME280;21130;51.728;8.748;2023-04-06T05:39:27;100573.69;;;0.17;100.00
34925;BME280;21130;51.728;8.748;2023-04-06T05:41:53;100566.50;;;0.25;100.00
34925;BME280;21130;51.728;8.748;2023-04-06T05:44:20;100568.50;;;0.39;100.00
34925;BME280;21130;51.728;8.748;2023-04-06T05:46:46;100570.50;;;0.53;100.00
34925;BME280;21130;51.728;8.748;2023-04-06T05:49:13;100566.22;;;0.59;100.00
34925;BME280;21130;51.728;8.748;2023-04-06T05:51:39;100569.28;;;0.87;100.00
34925;BME280;21130;51.728;8.748;2023-04-06T05:54:06;100574.69;;;0.95;100.00
34925;BME280;21130;51.728;8.748;2023-04-06T05:56:34;100571.63;;;0.98;100.00
34925;BME280;21130;51.728;8.748;2023-04-06T05:59:01;100571.19;;;1.10;100.00
34925;BME280;21130;51.728;8.748;2023-04-06T06:01:27;100569.25;;;1.18;100.00
34925;BME280;21130;51.728;8.748;2023-04-06T06:03:54;100565.13;;;1.22;100.00
34925;BME280;21130;51.728;8.748;2023-04-06T06:06:20;100566.22;;;1.36;100.00
34925;BME280;21130;51.728;8.748;2023-04-06T06:08:47;100561.34;;;1.46;100.00
34925;BME280;21130;51.728;8.748;2023-04-06T06:11:13;100559.78;;;1.67;100.00
34925;BME280;21130;51.728;8.748;2023-04-06T06:13:41;100565.13;;;1.83;100.00
34925;BME280;21130;51.728;8.748;2023-04-06T06:16:07;100557.09;;;1.97;100.00
34925;BME280;21130;51.728;8.748;2023-04-06T06:18:34;100553.41;;;2.04;100.00
34925;BME280;21130;51.728;8.748;2023-04-06T06:21:01;100554.16;;;2.28;100.00
34925;BME280;21130;51.728;8.748;2023-04-06T06:23:29;100557.09;;;2.56;96.80
34925;BME280;21130;51.728;8.748;2023-04-06T06:25:55;100545.13;;;2.78;92.74
34925;BME280;21130;51.728;8.748;2023-04-06T06:28:23;100548.47;;;2.95;90.76
34925;BME280;21130;51.728;8.748;2023-04-06T06:30:52;100552.66;;;3.13;86.02
34925;BME280;21130;51.728;8.748;2023-04-06T06:33:19;100550.00;;;3.19;85.29
34925;BME280;21130;51.728;8.748;2023-04-06T06:35:45;100554.56;;;3.34;82.67
34925;BME280;21130;51.728;8.748;2023-04-06T06:38:12;100556.38;;;3.48;79.94
34925;BME280;21130;51.728;8.748;2023-04-06T06:40:39;100555.19;;;3.57;80.86
34925;BME280;21130;51.728;8.748;2023-04-06T06:46:15;100552.28;;;3.87;76.26
34925;BME280;21130;51.728;8.748;2023-04-06T06:48:41;100548.81;;;4.06;74.22
34925;BME280;21130;51.728;8.748;2023-04-06T06:51:08;100548.25;;;4.18;71.97
34925;BME280;21130;51.728;8.748;2023-04-06T06:53:37;100544.97;;;4.36;69.80
34925;BME280;21130;51.728;8.748;2023-04-06T06:56:03;100546.28;;;4.46;69.49
34925;BME280;21130;51.728;8.748;2023-04-06T06:58:30;100546.53;;;4.58;68.24
34925;BME280;21130;51.728;8.748;2023-04-06T07:00:57;100553.81;;;4.72;67.60
34925;BME280;21130;51.728;8.748;2023-04-06T07:03:25;100548.16;;;4.87;65.29
34925;BME280;21130;51.728;8.748;2023-04-06T07:05:52;100546.91;;;5.03;65.72
34925;BME280;21130;51.728;8.748;2023-04-06T07:08:19;100537.44;;;5.26;62.89
34925;BME280;21130;51.728;8.748;2023-04-06T07:10:45;100539.16;;;5.40;61.55
34925;BME280;21130;51.728;8.748;2023-04-06T07:13:12;100540.84;;;5.61;61.19
34925;BME280;21130;51.728;8.748;2023-04-06T07:15:43;100534.09;;;5.70;60.47
34925;BME280;21130;51.728;8.748;2023-04-06T07:18:09;100528.78;;;5.89;59.12
34925;BME280;21130;51.728;8.748;2023-04-06T07:20:37;100536.84;;;6.03;57.83
34925;BME280;21130;51.728;8.748;2023-04-06T07:23:04;100534.06;;;6.17;57.11
34925;BME280;21130;51.728;8.748;2023-04-06T07:25:30;100533.59;;;6.26;56.81
34925;BME280;21130;51.728;8.748;2023-04-06T07:27:58;100536.56;;;6.38;56.03
34925;BME280;21130;51.728;8.748;2023-04-06T07:30:24;100530.16;;;6.51;56.15
34925;BME280;21130;51.728;8.748;2023-04-06T07:32:51;100528.66;;;6.55;54.62
34925;BME280;21130;51.728;8.748;2023-04-06T07:35:19;100527.56;;;6.63;53.97
34925;BME280;21130;51.728;8.748;2023-04-06T07:37:47;100536.84;;;6.75;54.08
34925;BME280;21130;51.728;8.748;2023-04-06T07:40:13;100538.69;;;6.88;52.49
34925;BME280;21130;51.728;8.748;2023-04-06T07:42:40;100535.19;;;7.06;53.25
34925;BME280;21130;51.728;8.748;2023-04-06T07:45:07;100532.88;;;7.34;53.00
34925;BME280;21130;51.728;8.748;2023-04-06T07:47:33;100534.13;;;7.39;51.75
34925;BME280;21130;51.728;8.748;2023-04-06T07:50:00;100530.22;;;7.53;50.46
34925;BME280;21130;51.728;8.748;2023-04-06T07:52:28;100523.84;;;7.77;51.11
34925;BME280;21130;51.728;8.748;2023-04-06T07:54:58;100525.31;;;7.80;48.83
34925;BME280;21130;51.728;8.748;2023-04-06T07:57:25;100523.59;;;8.04;49.08
34925;BME280;21130;51.728;8.748;2023-04-06T07:59:51;100523.44;;;8.17;48.39
34925;BME280;21130;51.728;8.748;2023-04-06T08:02:18;100523.78;;;8.28;47.13
34925;BME280;21130;51.728;8.748;2023-04-06T08:04:44;100516.41;;;8.40;45.87
34925;BME280;21130;51.728;8.748;2023-04-06T08:07:11;100518.44;;;8.51;44.61
34925;BME280;21130;51.728;8.748;2023-04-06T08:09:38;100510.28;;;8.38;44.81
34925;BME280;21130;51.728;8.748;2023-04-06T08:12:06;100523.97;;;8.51;44.54
34925;BME280;21130;51.728;8.748;2023-04-06T08:14:32;100513.97;;;8.69;44.10
34925;BME280;21130;51.728;8.748;2023-04-06T08:16:59;100521.38;;;8.86;43.58
34925;BME280;21130;51.728;8.748;2023-04-06T08:19:26;100521.47;;;8.98;44.12
34925;BME280;21130;51.728;8.748;2023-04-06T08:21:52;100523.94;;;9.18;45.08
34925;BME280;21130;51.728;8.748;2023-04-06T08:24:18;100513.00;;;9.35;43.90
34925;BME280;21130;51.728;8.748;2023-04-06T08:26:45;100519.69;;;9.46;43.55
34925;BME280;21130;51.728;8.748;2023-04-06T08:29:13;100507.38;;;9.42;42.87
34925;BME280;21130;51.728;8.748;2023-04-06T08:31:39;100506.84;;;9.63;41.50
34925;BME280;21130;51.728;8.748;2023-04-06T08:34:06;100507.91;;;9.08;41.52
34925;BME280;21130;51.728;8.748;2023-04-06T08:36:35;100511.47;;;9.39;42.30
34925;BME280;21130;51.728;8.748;2023-04-06T08:39:02;100504.63;;;9.42;41.86
34925;BME280;21130;51.728;8.748;2023-04-06T08:41:29;100504.31;;;9.73;41.51
34925;BME280;21130;51.728;8.748;2023-04-06T08:43:58;100511.66;;;9.80;41.28
34925;BME280;21130;51.728;8.748;2023-04-06T08:46:27;100509.59;;;9.63;41.63
34925;BME280;21130;51.728;8.748;2023-04-06T08:48:56;100511.53;;;9.74;41.98
34925;BME280;21130;51.728;8.748;2023-04-06T08:51:23;100504.19;;;9.92;41.42
34925;BME280;21130;51.728;8.748;2023-04-06T08:53:50;100495.00;;;10.27;41.96
34925;BME280;21130;51.728;8.748;2023-04-06T08:56:19;100499.25;;;10.41;41.36
34925;BME280;21130;51.728;8.748;2023-04-06T08:58:47;100496.66;;;10.63;41.11
34925;BME280;21130;51.728;8.748;2023-04-06T09:01:14;100492.97;;;11.15;40.57
34925;BME280;21130;51.728;8.748;2023-04-06T09:03:45;100497.50;;;11.21;39.75
34925;BME280;21130;51.728;8.748;2023-04-06T09:06:13;100500.53;;;11.65;40.30
34925;BME280;21130;51.728;8.748;2023-04-06T09:08:40;100495.72;;;11.60;39.62
34925;BME280;21130;51.728;8.748;2023-04-06T09:11:07;100496.97;;;12.20;39.40
34925;BME280;21130;51.728;8.748;2023-04-06T09:13:45;100492.78;;;11.84;38.57
34925;BME280;21130;51.728;8.748;2023-04-06T09:16:11;100497.81;;;11.53;39.92
34925;BME280;21130;51.728;8.748;2023-04-06T09:18:38;100491.25;;;12.10;39.10
34925;BME280;21130;51.728;8.748;2023-04-06T09:21:08;100487.22;;;12.01;39.08
34925;BME280;21130;51.728;8.748;2023-04-06T09:23:34;100488.47;;;12.10;38.71
34925;BME280;21130;51.728;8.748;2023-04-06T09:26:08;100479.53;;;12.08;38.29
34925;BME280;21130;51.728;8.748;2023-04-06T09:28:44;100493.75;;;12.28;38.73
34925;BME280;21130;51.728;8.748;2023-04-06T09:31:12;100480.19;;;12.54;38.65
34925;BME280;21130;51.728;8.748;2023-04-06T09:33:40;100486.06;;;12.80;38.78
34925;BME280;21130;51.728;8.748;2023-04-06T09:36:08;100480.81;;;12.83;38.16
34925;BME280;21130;51.728;8.748;2023-04-06T09:38:37;100480.19;;;13.03;38.23
34925;BME280;21130;51.728;8.748;2023-04-06T09:41:04;100472.53;;;12.66;38.09
34925;BME280;21130;51.728;8.748;2023-04-06T09:43:30;100484.63;;;12.99;37.45
34925;BME280;21130;51.728;8.748;2023-04-06T09:45:58;100472.13;;;13.29;38.48
34925;BME280;21130;51.728;8.748;2023-04-06T09:48:28;100467.13;;;13.95;36.80
34925;BME280;21130;51.728;8.748;2023-04-06T09:51:03;100471.28;;;13.93;37.22
34925;BME280;21130;51.728;8.748;2023-04-06T09:53:34;100464.78;;;13.45;36.20
34925;BME280;21130;51.728;8.748;2023-04-06T09:56:06;100470.31;;;12.90;36.46
34925;BME280;21130;51.728;8.748;2023-04-06T09:58:37;100474.63;;;13.03;37.14
34925;BME280;21130;51.728;8.748;2023-04-06T10:01:10;100469.53;;;12.95;37.05
34925;BME280;21130;51.728;8.748;2023-04-06T10:03:45;100463.66;;;12.69;38.12
34925;BME280;21130;51.728;8.748;2023-04-06T10:06:14;100468.56;;;13.11;36.34
34925;BME280;21130;51.728;8.748;2023-04-06T10:08:45;100452.47;;;13.40;36.77
34925;BME280;21130;51.728;8.748;2023-04-06T10:11:14;100460.56;;;13.15;36.60
34925;BME280;21130;51.728;8.748;2023-04-06T10:13:42;100467.66;;;12.79;37.08
34925;BME280;21130;51.728;8.748;2023-04-06T10:16:09;100458.69;;;13.26;37.15
34925;BME280;21130;51.728;8.748;2023-04-06T10:18:38;100457.22;;;14.15;36.47
34925;BME280;21130;51.728;8.748;2023-04-06T10:21:08;100459.50;;;13.48;36.65
34925;BME280;21130;51.728;8.748;2023-04-06T10:23:40;100459.06;;;13.67;36.03
34925;BME280;21130;51.728;8.748;2023-04-06T10:26:13;100456.75;;;13.53;36.54
34925;BME280;21130;51.728;8.748;2023-04-06T10:28:43;100433.94;;;13.61;37.52
34925;BME280;21130;51.728;8.748;2023-04-06T10:31:11;100458.50;;;13.05;36.84
34925;BME280;21130;51.728;8.748;2023-04-06T10:33:38;100452.56;;;13.88;35.98
34925;BME280;21130;51.728;8.748;2023-04-06T10:36:12;100450.47;;;14.11;36.42
34925;BME280;21130;51.728;8.748;2023-04-06T10:38:40;100450.97;;;13.97;36.01
34925;BME280;21130;51.728;8.748;2023-04-06T10:41:09;100454.22;;;14.37;36.10
34925;BME280;21130;51.728;8.748;2023-04-06T10:43:37;100450.81;;;13.77;36.49
34925;BME280;21130;51.728;8.748;2023-04-06T10:46:06;100446.69;;;14.32;36.04
34925;BME280;21130;51.728;8.748;2023-04-06T10:48:36;100443.97;;;14.47;36.98
34925;BME280;21130;51.728;8.748;2023-04-06T10:51:08;100444.50;;;14.44;35.29
34925;BME280;21130;51.728;8.748;2023-04-06T10:53:35;100440.97;;;14.12;36.46
34925;BME280;21130;51.728;8.748;2023-04-06T10:56:02;100442.91;;;14.54;35.86
34925;BME280;21130;51.728;8.748;2023-04-06T10:58:30;100436.88;;;14.87;34.71
34925;BME280;21130;51.728;8.748;2023-04-06T11:00:57;100432.50;;;15.53;35.24
34925;BME280;21130;51.728;8.748;2023-04-06T11:03:24;100437.16;;;14.91;33.17
34925;BME280;21130;51.728;8.748;2023-04-06T11:05:52;100428.75;;;14.81;34.34
34925;BME280;21130;51.728;8.748;2023-04-06T11:08:22;100425.69;;;14.77;35.97
34925;BME280;21130;51.728;8.748;2023-04-06T11:10:49;100421.84;;;15.14;35.61
34925;BME280;21130;51.728;8.748;2023-04-06T11:13:16;100418.50;;;15.32;33.95
34925;BME280;21130;51.728;8.748;2023-04-06T11:15:47;100418.16;;;14.83;33.28
34925;BME280;21130;51.728;8.748;2023-04-06T11:18:17;100413.38;;;14.73;34.00
34925;BME280;21130;51.728;8.748;2023-04-06T11:20:47;100410.88;;;14.82;33.82
34925;BME280;21130;51.728;8.748;2023-04-06T11:23:22;100406.19;;;15.03;33.36
34925;BME280;21130;51.728;8.748;2023-04-06T11:25:50;100414.22;;;14.79;34.35
34925;BME280;21130;51.728;8.748;2023-04-06T11:28:17;100408.66;;;14.89;33.94
34925;BME280;21130;51.728;8.748;2023-04-06T11:30:46;100404.13;;;14.57;33.67
34925;BME280;21130;51.728;8.748;2023-04-06T11:33:20;100401.06;;;14.69;34.08
34925;BME280;21130;51.728;8.748;2023-04-06T11:35:47;100401.41;;;15.03;35.31
34925;BME280;21130;51.728;8.748;2023-04-06T11:38:14;100389.41;;;15.23;33.23
34925;BME280;21130;51.728;8.748;2023-04-06T11:40:40;100393.03;;;15.60;33.67
34925;BME280;21130;51.728;8.748;2023-04-06T11:43:10;100389.97;;;15.51;33.42
34925;BME280;21130;51.728;8.748;2023-04-06T11:45:41;100382.13;;;15.89;32.50
34925;BME280;21130;51.728;8.748;2023-04-06T11:57:24;100388.25;;;15.96;31.63
34925;BME280;21130;51.728;8.748;2023-04-06T11:59:51;100375.41;;;15.85;31.44
34925;BME280;21130;51.728;8.748;2023-04-06T12:02:18;100381.59;;;15.36;31.65
34925;BME280;21130;51.728;8.748;2023-04-06T12:04:46;100383.25;;;15.83;31.56
34925;BME280;21130;51.728;8.748;2023-04-06T12:07:12;100369.56;;;15.45;33.31
34925;BME280;21130;51.728;8.748;2023-04-06T12:09:38;100372.63;;;15.44;32.33
34925;BME280;21130;51.728;8.748;2023-04-06T12:12:05;100376.50;;;15.99;31.11
34925;BME280;21130;51.728;8.748;2023-04-06T12:14:33;100376.94;;;16.32;31.25
34925;BME280;21130;51.728;8.748;2023-04-06T12:16:59;100371.81;;;17.04;31.85
34925;BME280;21130;51.728;8.748;2023-04-06T12:19:26;100374.22;;;16.71;30.42
34925;BME280;21130;51.728;8.748;2023-04-06T12:21:53;100368.41;;;17.41;28.41
34925;BME280;21130;51.728;8.748;2023-04-06T12:24:19;100370.66;;;17.05;26.53
34925;BME280;21130;51.728;8.748;2023-04-06T12:26:46;100366.81;;;16.41;26.62
34925;BME280;21130;51.728;8.748;2023-04-06T12:29:13;100374.38;;;16.95;27.77
34925;BME280;21130;51.728;8.748;2023-04-06T12:31:41;100360.75;;;17.18;27.96
34925;BME280;21130;51.728;8.748;2023-04-06T12:34:09;100369.16;;;16.83;27.43
34925;BME280;21130;51.728;8.748;2023-04-06T12:36:36;100359.78;;;16.98;27.61
34925;BME280;21130;51.728;8.748;2023-04-06T12:39:04;100352.38;;;17.13;28.02
34925;BME280;21130;51.728;8.748;2023-04-06T12:41:30;100358.22;;;17.21;26.19
34925;BME280;21130;51.728;8.748;2023-04-06T12:43:58;100356.16;;;17.32;27.61
34925;BME280;21130;51.728;8.748;2023-04-06T12:46:24;100361.31;;;16.70;25.89
34925;BME280;21130;51.728;8.748;2023-04-06T12:48:52;100356.25;;;16.77;25.61
34925;BME280;21130;51.728;8.748;2023-04-06T12:51:20;100355.72;;;16.80;25.72
34925;BME280;21130;51.728;8.748;2023-04-06T12:53:47;100347.19;;;16.46;25.68
34925;BME280;21130;51.728;8.748;2023-04-06T12:56:15;100343.28;;;16.42;26.76
34925;BME280;21130;51.728;8.748;2023-04-06T12:58:43;100351.25;;;16.09;26.87
34925;BME280;21130;51.728;8.748;2023-04-06T13:01:10;100349.25;;;16.75;25.68
34925;BME280;21130;51.728;8.748;2023-04-06T13:03:38;100348.41;;;16.79;26.75